sensor_id;sensor_type;location;lat;lon;timestamp;temperature;humidity
74220;DHT22;62580;54.416;11.120;2022-11-20T00:07:04;17.80;50.70
74220;DHT22;62580;54.416;11.120;2022-11-20T00:17:04;17.80;50.70
74220;DHT22;62580;54.416;11.120;2022-11-20T00:27:06;17.80;50.80
74220;DHT22;62580;54.416;11.120;2022-11-20T00:37:07;17.80;50.70
74220;DHT22;62580;54.416;11.120;2022-11-20T00:47:09;17.80;50.80
74220;DHT22;62580;54.416;11.120;2022-11-20T00:57:10;17.80;50.80
74220;DHT22;62580;54.416;11.120;2022-11-20T01:07:12;17.80;50.80
74220;DHT22;62580;54.416;11.120;2022-11-20T01:17:12;17.80;50.80
74220;DHT22;62580;54.416;11.120;2022-11-20T01:27:14;17.70;50.80
74220;DHT22;62580;54.416;11.120;2022-11-20T01:37:15;17.80;50.90
74220;DHT22;62580;54.416;11.120;2022-11-20T01:47:27;17.80;50.80
74220;DHT22;62580;54.416;11.120;2022-11-20T01:57:31;17.80;50.70
74220;DHT22;62580;54.416;11.120;2022-11-20T02:07:36;17.80;50.70
74220;DHT22;62580;54.416;11.120;2022-11-20T02:17:37;17.80;50.80
74220;DHT22;62580;54.416;11.120;2022-11-20T02:27:39;17.80;50.80
74220;DHT22;62580;54.416;11.120;2022-11-20T02:37:40;17.80;50.80
74220;DHT22;62580;54.416;11.120;2022-11-20T02:47:42;17.80;50.60
74220;DHT22;62580;54.416;11.120;2022-11-20T02:57:43;17.80;50.70
74220;DHT22;62580;54.416;11.120;2022-11-20T03:07:45;17.80;50.70
74220;DHT22;62580;54.416;11.120;2022-11-20T03:17:45;17.80;50.80
74220;DHT22;62580;54.416;11.120;2022-11-20T03:27:47;17.80;50.70
74220;DHT22;62580;54.416;11.120;2022-11-20T03:37:48;17.80;50.60
74220;DHT22;62580;54.416;11.120;2022-11-20T03:47:50;17.80;50.80
74220;DHT22;62580;54.416;11.120;2022-11-20T03:57:51;17.70;50.70
74220;DHT22;62580;54.416;11.120;2022-11-20T04:07:53;17.80;50.70
74220;DHT22;62580;54.416;11.120;2022-11-20T04:17:54;17.80;50.60
74220;DHT22;62580;54.416;11.120;2022-11-20T04:27:56;17.80;50.60
74220;DHT22;62580;54.416;11.120;2022-11-20T04:37:57;17.70;50.60
74220;DHT22;62580;54.416;11.120;2022-11-20T04:47:59;17.70;50.50
74220;DHT22;62580;54.416;11.120;2022-11-20T04:57:59;17.80;50.60
74220;DHT22;62580;54.416;11.120;2022-11-20T05:08:01;17.80;50.50
74220;DHT22;62580;54.416;11.120;2022-11-20T05:18:02;17.80;50.50
74220;DHT22;62580;54.416;11.120;2022-11-20T05:28:04;17.80;50.50
74220;DHT22;62580;54.416;11.120;2022-11-20T05:38:04;17.80;50.60
74220;DHT22;62580;54.416;11.120;2022-11-20T05:48:06;17.80;50.60
74220;DHT22;62580;54.416;11.120;2022-11-20T05:58:07;17.80;50.60
74220;DHT22;62580;54.416;11.120;2022-11-20T06:08:09;17.80;50.50
74220;DHT22;62580;54.416;11.120;2022-11-20T06:18:10;17.90;50.30
74220;DHT22;62580;54.416;11.120;2022-11-20T06:28:11;17.90;50.30
74220;DHT22;62580;54.416;11.120;2022-11-20T06:38:12;17.80;50.30
74220;DHT22;62580;54.416;11.120;2022-11-20T06:48:14;17.80;51.00
74220;DHT22;62580;54.416;11.120;2022-11-20T06:58:16;17.80;50.30
74220;DHT22;62580;54.416;11.120;2022-11-20T07:08:18;17.80;50.50
74220;DHT22;62580;54.416;11.120;2022-11-20T07:18:19;17.80;50.50
74220;DHT22;62580;54.416;11.120;2022-11-20T07:28:21;17.80;50.50
74220;DHT22;62580;54.416;11.120;2022-11-20T07:38:21;17.80;50.30
74220;DHT22;62580;54.416;11.120;2022-11-20T07:48:23;17.80;50.30
74220;DHT22;62580;54.416;11.120;2022-11-20T07:58:24;17.80;50.30
74220;DHT22;62580;54.416;11.120;2022-11-20T08:08:26;17.80;50.40
74220;DHT22;62580;54.416;11.120;2022-11-20T08:18:27;17.80;50.30
74220;DHT22;62580;54.416;11.120;2022-11-20T08:28:29;17.80;50.40
74220;DHT22;62580;54.416;11.120;2022-11-20T08:38:30;17.80;50.30
74220;DHT22;62580;54.416;11.120;2022-11-20T08:48:32;17.80;50.30
74220;DHT22;62580;54.416;11.120;2022-11-20T08:58:32;17.80;50.20
74220;DHT22;62580;54.416;11.120;2022-11-20T09:08:35;17.80;50.20
74220;DHT22;62580;54.416;11.120;2022-11-20T09:18:35;17.90;50.30
74220;DHT22;62580;54.416;11.120;2022-11-20T09:28:38;17.80;50.20
74220;DHT22;62580;54.416;11.120;2022-11-20T09:38:38;17.80;50.30
74220;DHT22;62580;54.416;11.120;2022-11-20T09:48:51;17.80;50.30
74220;DHT22;62580;54.416;11.120;2022-11-20T09:58:56;17.80;50.40
74220;DHT22;62580;54.416;11.120;2022-11-20T10:09:06;17.80;50.30
74220;DHT22;62580;54.416;11.120;2022-11-20T10:19:25;17.80;50.20
74220;DHT22;62580;54.416;11.120;2022-11-20T10:29:33;17.90;50.30
74220;DHT22;62580;54.416;11.120;2022-11-20T10:39:36;17.90;50.20
74220;DHT22;62580;54.416;11.120;2022-11-20T10:49:42;17.80;50.20
74220;DHT22;62580;54.416;11.120;2022-11-20T10:59:59;17.80;50.30
74220;DHT22;62580;54.416;11.120;2022-11-20T11:10:14;17.90;50.30
74220;DHT22;62580;54.416;11.120;2022-11-20T11:20:17;17.90;50.30
74220;DHT22;62580;54.416;11.120;2022-11-20T11:30:20;17.80;50.30
74220;DHT22;62580;54.416;11.120;2022-11-20T11:40:22;17.90;50.20
74220;DHT22;62580;54.416;11.120;2022-11-20T11:50:25;17.90;50.20
74220;DHT22;62580;54.416;11.120;2022-11-20T12:00:26;17.90;50.10
74220;DHT22;62580;54.416;11.120;2022-11-20T12:10:40;17.90;50.10
74220;DHT22;62580;54.416;11.120;2022-11-20T12:20:45;17.90;50.10
74220;DHT22;62580;54.416;11.120;2022-11-20T12:31:00;17.90;50.20
74220;DHT22;62580;54.416;11.120;2022-11-20T12:41:09;17.90;50.20
74220;DHT22;62580;54.416;11.120;2022-11-20T12:51:30;17.80;50.30
74220;DHT22;62580;54.416;11.120;2022-11-20T13:01:37;17.80;50.30
74220;DHT22;62580;54.416;11.120;2022-11-20T13:11:46;17.80;50.10
74220;DHT22;62580;54.416;11.120;2022-11-20T13:21:49;17.90;49.90
74220;DHT22;62580;54.416;11.120;2022-11-20T13:32:03;17.90;49.50
74220;DHT22;62580;54.416;11.120;2022-11-20T13:42:23;17.90;49.40
74220;DHT22;62580;54.416;11.120;2022-11-20T13:52:39;17.90;49.50
74220;DHT22;62580;54.416;11.120;2022-11-20T14:02:53;17.90;49.60
74220;DHT22;62580;54.416;11.120;2022-11-20T14:13:10;17.90;49.80
74220;DHT22;62580;54.416;11.120;2022-11-20T14:23:11;17.90;49.80
74220;DHT22;62580;54.416;11.120;2022-11-20T14:33:14;17.90;49.70
74220;DHT22;62580;54.416;11.120;2022-11-20T14:43:18;18.00;49.70
74220;DHT22;62580;54.416;11.120;2022-11-20T14:53:24;18.00;49.60
74220;DHT22;62580;54.416;11.120;2022-11-20T15:03:31;18.00;49.70
74220;DHT22;62580;54.416;11.120;2022-11-20T15:13:37;17.90;49.80
74220;DHT22;62580;54.416;11.120;2022-11-20T15:23:38;17.90;49.90
74220;DHT22;62580;54.416;11.120;2022-11-20T15:33:40;17.80;49.90
74220;DHT22;62580;54.416;11.120;2022-11-20T15:43:40;17.90;49.80
74220;DHT22;62580;54.416;11.120;2022-11-20T15:53:42;17.90;49.70
74220;DHT22;62580;54.416;11.120;2022-11-20T16:03:43;17.90;49.70
74220;DHT22;62580;54.416;11.120;2022-11-20T16:13:45;17.90;49.80
74220;DHT22;62580;54.416;11.120;2022-11-20T16:23:46;17.90;49.80
74220;DHT22;62580;54.416;11.120;2022-11-20T16:33:50;17.90;49.80
74220;DHT22;62580;54.416;11.120;2022-11-20T16:43:53;17.90;49.80
74220;DHT22;62580;54.416;11.120;2022-11-20T16:53:56;17.90;49.80
74220;DHT22;62580;54.416;11.120;2022-11-20T17:03:59;17.90;49.70
74220;DHT22;62580;54.416;11.120;2022-11-20T17:14:01;17.90;49.60
74220;DHT22;62580;54.416;11.120;2022-11-20T17:24:04;18.00;49.60
74220;DHT22;62580;54.416;11.120;2022-11-20T17:34:10;17.90;49.60
74220;DHT22;62580;54.416;11.120;2022-11-20T17:44:11;17.90;49.60
74220;DHT22;62580;54.416;11.120;2022-11-20T17:54:13;17.90;49.80
74220;DHT22;62580;54.416;11.120;2022-11-20T18:04:14;17.90;49.80
74220;DHT22;62580;54.416;11.120;2022-11-20T18:14:16;17.80;49.70
74220;DHT22;62580;54.416;11.120;2022-11-20T18:24:17;17.80;49.80
74220;DHT22;62580;54.416;11.120;2022-11-20T18:34:19;17.80;49.70
74220;DHT22;62580;54.416;11.120;2022-11-20T18:44:21;17.90;49.60
74220;DHT22;62580;54.416;11.120;2022-11-20T18:54:24;17.90;49.70
74220;DHT22;62580;54.416;11.120;2022-11-20T19:04:24;17.90;49.60
74220;DHT22;62580;54.416;11.120;2022-11-20T19:14:26;17.90;49.60
74220;DHT22;62580;54.416;11.120;2022-11-20T19:24:27;17.90;49.40
74220;DHT22;62580;54.416;11.120;2022-11-20T19:34:29;17.90;49.40
74220;DHT22;62580;54.416;11.120;2022-11-20T19:44:30;17.90;49.50
74220;DHT22;62580;54.416;11.120;2022-11-20T19:54:32;17.90;49.50
74220;DHT22;62580;54.416;11.120;2022-11-20T20:04:32;17.80;49.60
74220;DHT22;62580;54.416;11.120;2022-11-20T20:14:34;17.90;49.50
74220;DHT22;62580;54.416;11.120;2022-11-20T20:24:35;17.90;49.40
74220;DHT22;62580;54.416;11.120;2022-11-20T20:34:37;17.90;49.40
74220;DHT22;62580;54.416;11.120;2022-11-20T20:44:38;17.90;49.40
74220;DHT22;62580;54.416;11.120;2022-11-20T20:54:39;17.90;49.40
74220;DHT22;62580;54.416;11.120;2022-11-20T21:04:40;17.90;49.40
74220;DHT22;62580;54.416;11.120;2022-11-20T21:14:42;17.80;49.30
74220;DHT22;62580;54.416;11.120;2022-11-20T21:24:43;17.80;49.30
74220;DHT22;62580;54.416;11.120;2022-11-20T21:34:45;17.80;49.40
74220;DHT22;62580;54.416;11.120;2022-11-20T21:44:46;17.80;49.50
74220;DHT22;62580;54.416;11.120;2022-11-20T21:54:47;17.80;49.40
74220;DHT22;62580;54.416;11.120;2022-11-20T22:04:48;17.90;49.40
74220;DHT22;62580;54.416;11.120;2022-11-20T22:14:50;17.90;49.40
74220;DHT22;62580;54.416;11.120;2022-11-20T22:24:51;17.80;49.40
74220;DHT22;62580;54.416;11.120;2022-11-20T22:34:53;17.90;49.40
74220;DHT22;62580;54.416;11.120;2022-11-20T22:44:53;17.90;49.40
74220;DHT22;62580;54.416;11.120;2022-11-20T22:54:55;17.90;49.20
74220;DHT22;62580;54.416;11.120;2022-11-20T23:04:56;17.90;49.40
74220;DHT22;62580;54.416;11.120;2022-11-20T23:14:58;17.80;49.50
74220;DHT22;62580;54.416;11.120;2022-11-20T23:24:58;17.80;49.40
74220;DHT22;62580;54.416;11.120;2022-11-20T23:35:00;17.80;49.30
74220;DHT22;62580;54.416;11.120;2022-11-20T23:45:02;17.90;49.10
74220;DHT22;62580;54.416;11.120;2022-11-20T23:55:05;17.90;49.00
